Time;durP1;ratioP1;P1;durP2;ratioP2;P2;SDS_P1;SDS_P2;PMS_P1;PMS_P2;Temp;Humidity;BMP_temperature;BMP_pressure;BME280_temperature;BME280_humidity;BME280_pressure;Samples;Min_cycle;Max_cycle;Signal;HPM_P1;HPM_P2
2021/09/02 00:00:14;;;;;;;3.38;1.13;;;19.90;68.50;;;;;;21039396;27;82614;-68
2021/09/02 00:10:16;;;;;;;2.80;1.20;;;19.80;68.40;;;;;;21048154;27;80960;-66
2021/09/02 00:20:18;;;;;;;1.95;0.70;;;19.70;68.60;;;;;;21065162;27;81910;-71
2021/09/02 00:30:20;;;;;;;4.03;0.80;;;19.70;69.20;;;;;;21045835;27;81272;-71
2021/09/02 00:40:21;;;;;;;2.00;0.70;;;19.50;69.40;;;;;;21063225;27;80887;-70
2021/09/02 00:50:23;;;;;;;2.23;0.83;;;19.60;69.30;;;;;;21062332;27;80991;-71
2021/09/02 01:00:25;;;;;;;4.67;1.40;;;19.50;69.40;;;;;;21044290;27;81627;-71
2021/09/02 01:10:27;;;;;;;3.43;1.03;;;19.50;69.70;;;;;;21044840;27;81788;-70
2021/09/02 01:20:31;;;;;;;4.05;1.38;;;19.40;70.20;;;;;;21062931;27;81804;-71
2021/09/02 01:30:36;;;;;;;3.53;1.15;;;19.30;71.00;;;;;;21061556;27;80611;-71
2021/09/02 01:40:45;;;;;;;3.80;1.30;;;19.20;71.60;;;;;;21060447;27;79977;-71
2021/09/02 01:51:06;;;;;;;4.85;1.27;;;19.20;72.70;;;;;;21060756;27;81040;-70
2021/09/02 02:01:13;;;;;;;4.00;1.20;;;19.10;73.20;;;;;;21058767;27;80035;-67
2021/09/02 02:11:19;;;;;;;3.88;1.60;;;19.00;73.20;;;;;;21040618;27;80766;-67
2021/09/02 02:21:28;;;;;;;3.92;1.75;;;18.90;73.50;;;;;;21056885;27;79928;-69
2021/09/02 02:31:31;;;;;;;7.38;1.67;;;18.80;74.10;;;;;;21038469;27;81358;-69
2021/09/02 02:41:35;;;;;;;2.78;1.52;;;18.80;74.40;;;;;;21056450;27;80785;-69
2021/09/02 02:51:37;;;;;;;5.22;2.08;;;18.80;75.00;;;;;;21055636;27;80772;-69
2021/09/02 03:01:40;;;;;;;2.67;1.70;;;18.80;75.00;;;;;;21036888;27;81940;-67
2021/09/02 03:11:44;;;;;;;4.18;2.28;;;18.80;74.70;;;;;;21054245;27;80022;-68
2021/09/02 03:21:47;;;;;;;4.32;1.80;;;18.70;74.70;;;;;;21053868;27;81605;-67
2021/09/02 03:31:50;;;;;;;;;;;18.60;74.80;;;;;;21034216;27;80928;-67
2021/09/02 03:41:52;;;;;;;3.37;1.80;;;18.50;75.10;;;;;;21074463;27;79631;-66
2021/09/02 03:51:55;;;;;;;3.80;1.65;;;18.40;75.30;;;;;;21053147;27;79857;-65
2021/09/02 04:01:57;;;;;;;4.30;1.88;;;18.30;75.40;;;;;;21033728;27;80758;-68
2021/09/02 04:12:00;;;;;;;7.85;1.90;;;18.40;75.40;;;;;;21034123;27;81902;-69
2021/09/02 04:22:03;;;;;;;5.00;1.67;;;18.50;75.10;;;;;;21049913;27;80435;-67
2021/09/02 04:32:05;;;;;;;4.03;1.75;;;18.60;75.30;;;;;;21050737;27;81919;-70
2021/09/02 04:42:10;;;;;;;11.68;2.42;;;18.70;74.80;;;;;;21050149;27;81772;-71
2021/09/02 04:52:12;;;;;;;4.43;1.80;;;18.60;75.00;;;;;;21063968;27;80328;-68
2021/09/02 05:02:17;;;;;;;2.97;1.60;;;18.50;75.10;;;;;;21063390;27;80720;-68
2021/09/02 05:12:19;;;;;;;8.10;1.75;;;18.60;75.30;;;;;;21063230;27;81514;-68
2021/09/02 05:22:21;;;;;;;9.23;1.87;;;18.70;75.40;;;;;;21062941;27;81847;-66
2021/09/02 05:32:23;;;;;;;8.63;2.17;;;18.70;75.70;;;;;;21044012;27;81720;-68
2021/09/02 05:42:26;;;;;;;;;;;18.70;75.30;;;;;;21062489;27;82066;-67
2021/09/02 05:52:28;;;;;;;10.95;2.80;;;18.70;75.50;;;;;;21084351;27;82098;-67
2021/09/02 06:02:30;;;;;;;16.80;5.10;;;18.60;77.00;;;;;;21041199;27;79844;-66
2021/09/02 06:12:32;;;;;;;12.50;3.80;;;18.40;78.20;;;;;;21041441;27;80779;-65
2021/09/02 06:22:35;;;;;;;7.90;3.10;;;18.40;78.70;;;;;;21038807;27;80851;-67
2021/09/02 06:32:38;;;;;;;10.53;4.90;;;18.50;78.90;;;;;;21055999;27;80718;-65
2021/09/02 06:42:41;;;;;;;8.85;6.05;;;18.70;78.80;;;;;;21039102;27;81731;-65
2021/09/02 06:52:43;;;;;;;12.00;6.50;;;18.90;78.60;;;;;;21056082;27;80593;-65
2021/09/02 07:02:45;;;;;;;7.40;5.10;;;19.10;78.10;;;;;;21056144;27;81889;-63
2021/09/02 07:12:47;;;;;;;;;;;19.40;78.10;;;;;;21037290;27;81626;-65
2021/09/02 07:22:50;;;;;;;9.93;7.17;;;19.70;77.90;;;;;;21058243;27;80688;-71
2021/09/02 07:32:54;;;;;;;13.32;7.93;;;19.90;76.50;;;;;;21054861;27;79916;-75
2021/09/02 07:42:57;;;;;;;14.45;8.48;;;20.20;76.00;;;;;;21053907;27;81800;-66
2021/09/02 07:53:00;;;;;;;17.00;9.43;;;20.80;73.90;;;;;;21051569;27;79952;-67
2021/09/02 08:03:05;;;;;;;20.02;11.48;;;21.00;72.40;;;;;;21048825;27;80709;-69
2021/09/02 08:13:06;;;;;;;;;;;21.00;72.30;;;;;;21036332;27;83928;-68
2021/09/02 08:23:09;;;;;;;22.40;15.05;;;21.30;71.90;;;;;;21083180;27;84253;-68
2021/09/02 08:33:12;;;;;;;24.30;15.30;;;21.40;71.30;;;;;;21050178;27;82772;-67
2021/09/02 08:43:17;;;;;;;18.58;13.35;;;21.70;69.90;;;;;;21052715;27;84515;-68
2021/09/02 08:53:19;;;;;;;22.45;13.32;;;22.40;67.70;;;;;;21052540;27;83310;-68
2021/09/02 09:03:24;;;;;;;15.85;10.63;;;23.00;65.60;;;;;;21053195;27;84439;-68
2021/09/02 09:13:30;;;;;;;14.13;9.90;;;23.60;64.40;;;;;;21052139;27;83380;-67
2021/09/02 09:23:50;;;;;;;13.05;9.65;;;24.50;60.80;;;;;;21061399;27;84199;-68
2021/09/02 09:33:55;;;;;;;16.40;9.20;;;25.20;58.90;;;;;;21062150;27;80228;-68
2021/09/02 09:44:24;;;;;;;13.90;9.60;;;25.30;57.10;;;;;;21060740;27;80922;-69
2021/09/02 09:54:28;;;;;;;15.98;8.80;;;25.80;56.20;;;;;;21061523;27;81508;-68
2021/09/02 10:04:34;;;;;;;15.40;8.63;;;26.40;53.90;;;;;;21058412;27;80891;-67
2021/09/02 10:14:37;;;;;;;12.65;6.20;;;26.20;54.00;;;;;;21059739;27;80767;-69
2021/09/02 10:24:42;;;;;;;24.08;8.32;;;27.10;51.40;;;;;;21059385;27;80532;-68
2021/09/02 10:34:45;;;;;;;10.68;6.82;;;29.30;45.60;;;;;;21058137;27;81108;-68
2021/09/02 10:44:52;;;;;;;12.75;7.95;;;30.70;42.20;;;;;;21056624;27;80897;-68
2021/09/02 10:54:54;;;;;;;11.98;6.85;;;32.90;38.10;;;;;;21057239;27;81795;-68
2021/09/02 11:05:04;;;;;;;12.55;6.32;;;32.40;38.90;;;;;;21053960;27;79966;-70
2021/09/02 11:15:08;;;;;;;9.60;4.95;;;36.80;31.10;;;;;;21052528;27;80733;-71
2021/09/02 11:25:10;;;;;;;10.43;4.43;;;40.00;27.40;;;;;;21055149;27;81739;-68
2021/09/02 11:35:12;;;;;;;9.45;4.45;;;42.20;25.00;;;;;;21052107;27;80807;-67
2021/09/02 11:45:17;;;;;;;9.77;4.30;;;43.60;23.40;;;;;;21051606;27;80883;-68
2021/09/02 11:55:26;;;;;;;7.95;3.83;;;44.70;22.20;;;;;;21058344;27;82008;-67
2021/09/02 12:05:36;;;;;;;7.47;3.85;;;46.90;20.70;;;;;;21068917;27;80862;-68
2021/09/02 12:15:38;;;;;;;6.25;3.33;;;47.80;19.80;;;;;;21068345;27;79828;-68
2021/09/02 12:26:02;;;;;;;4.90;3.22;;;47.20;20.10;;;;;;21067880;27;82272;-69
2021/09/02 12:36:17;;;;;;;7.43;4.47;;;41.30;23.60;;;;;;21065382;27;80550;-68
2021/09/02 12:46:20;;;;;;;6.93;5.28;;;36.00;28.70;;;;;;21065513;27;80857;-68
2021/09/02 12:56:22;;;;;;;7.50;4.35;;;39.80;25.00;;;;;;21063603;27;80753;-69
2021/09/02 13:06:24;;;;;;;7.25;3.63;;;41.20;23.90;;;;;;21064390;27;81896;-70
2021/09/02 13:16:26;;;;;;;5.78;3.05;;;41.60;23.90;;;;;;21064452;27;80725;-68
2021/09/02 13:26:28;;;;;;;4.85;2.58;;;40.90;23.70;;;;;;21062835;27;81601;-68
2021/09/02 13:36:30;;;;;;;4.13;2.75;;;37.60;26.80;;;;;;21062543;27;80995;-68
2021/09/02 13:46:32;;;;;;;4.65;2.30;;;34.90;29.90;;;;;;21055996;27;81709;-69
2021/09/02 13:56:34;;;;;;;5.55;2.40;;;31.70;34.00;;;;;;21053085;27;81767;-70
2021/09/02 14:06:36;;;;;;;5.10;2.10;;;30.20;36.50;;;;;;21058030;27;81607;-67
2021/09/02 14:16:39;;;;;;;5.05;3.03;;;29.30;39.90;;;;;;21051434;27;80927;-68
2021/09/02 14:26:40;;;;;;;7.82;3.63;;;28.00;44.60;;;;;;21034112;27;80737;-68
2021/09/02 14:36:42;;;;;;;8.43;3.40;;;25.00;58.40;;;;;;21052174;27;81858;-67
2021/09/02 14:46:44;;;;;;;11.68;3.63;;;23.20;75.00;;;;;;21032885;27;80539;-67
2021/09/02 14:56:45;;;;;;;4.18;2.50;;;25.30;75.00;;;;;;21033795;27;81881;-67
2021/09/02 15:06:47;;;;;;;6.63;2.63;;;33.20;55.80;;;;;;21050590;27;80897;-67
2021/09/02 15:16:51;;;;;;;4.10;2.15;;;29.40;61.70;;;;;;21012887;27;80067;-67
2021/09/02 15:26:53;;;;;;;7.60;2.95;;;27.90;61.80;;;;;;21030626;27;80492;-65
2021/09/02 15:36:55;;;;;;;3.90;2.70;;;27.40;61.20;;;;;;21009962;27;82122;-66
2021/09/02 15:46:57;;;;;;;8.45;2.97;;;27.80;61.30;;;;;;20953603;27;82237;-69
2021/09/02 15:56:59;;;;;;;3.38;2.17;;;32.40;45.50;;;;;;21020734;27;81854;-68
2021/09/02 16:07:01;;;;;;;4.40;2.58;;;33.40;39.70;;;;;;21027205;27;81316;-67
2021/09/02 16:17:03;;;;;;;4.50;2.20;;;33.40;38.70;;;;;;21051433;27;81829;-66
2021/09/02 16:27:08;;;;;;;3.53;1.75;;;31.00;41.30;;;;;;21052263;27;80854;-67
2021/09/02 16:37:11;;;;;;;4.82;2.38;;;32.10;37.60;;;;;;21049235;27;80693;-67
2021/09/02 16:47:13;;;;;;;4.65;1.77;;;31.10;39.60;;;;;;21028403;27;80820;-68
2021/09/02 16:57:15;;;;;;;2.50;1.48;;;32.50;36.70;;;;;;20961724;27;80274;-66
2021/09/02 17:07:16;;;;;;;5.93;2.00;;;30.00;41.00;;;;;;20960553;27;82156;-66
2021/09/02 17:17:19;;;;;;;3.95;1.90;;;29.10;41.80;;;;;;20959707;27;80944;-65
2021/09/02 17:27:21;;;;;;;4.78;2.35;;;28.20;43.60;;;;;;20977303;27;80987;-65
2021/09/02 17:37:23;;;;;;;2.58;1.30;;;27.30;46.60;;;;;;20977112;27;80874;-65
2021/09/02 17:47:25;;;;;;;3.25;1.63;;;26.50;47.50;;;;;;21025382;27;81754;-67
2021/09/02 17:57:27;;;;;;;5.03;1.75;;;26.10;47.70;;;;;;21012191;27;80738;-66
2021/09/02 18:07:29;;;;;;;3.55;1.80;;;25.90;48.40;;;;;;21046184;27;81795;-67
2021/09/02 18:17:32;;;;;;;3.20;2.00;;;25.50;48.70;;;;;;21055883;27;81020;-64
2021/09/02 18:27:34;;;;;;;7.85;2.38;;;25.10;49.40;;;;;;21029036;27;82070;-66
2021/09/02 18:37:36;;;;;;;2.55;1.45;;;25.00;50.50;;;;;;20971378;27;81671;-66
2021/09/02 18:47:37;;;;;;;3.58;1.98;;;24.70;51.80;;;;;;21002341;27;81865;-70
2021/09/02 18:57:39;;;;;;;3.85;2.03;;;24.10;53.30;;;;;;20968820;27;81091;-71
2021/09/02 19:07:46;;;;;;;3.78;1.80;;;23.90;53.50;;;;;;20950055;27;82321;-68
2021/09/02 19:17:49;;;;;;;3.70;1.50;;;23.80;53.40;;;;;;20950455;27;80043;-71
2021/09/02 19:27:56;;;;;;;5.38;3.08;;;23.60;53.30;;;;;;20983938;27;81664;-71
2021/09/02 19:37:58;;;;;;;3.90;1.48;;;23.50;52.80;;;;;;20980814;27;80820;-71
2021/09/02 19:48:00;;;;;;;7.35;2.47;;;23.40;52.40;;;;;;20949691;27;81906;-70
2021/09/02 19:58:13;;;;;;;3.38;2.25;;;23.20;52.40;;;;;;20960191;27;82027;-69
2021/09/02 20:08:26;;;;;;;4.32;2.13;;;23.10;53.40;;;;;;20966016;27;80754;-67
2021/09/02 20:18:28;;;;;;;4.20;2.25;;;22.90;53.30;;;;;;20972329;27;80925;-67
2021/09/02 20:28:29;;;;;;;;;;;22.80;53.70;;;;;;20962493;27;81168;-66
2021/09/02 20:38:32;;;;;;;7.28;2.10;;;22.50;54.70;;;;;;21001349;27;80764;-69
2021/09/02 20:48:40;;;;;;;3.65;1.70;;;22.40;55.30;;;;;;21026834;27;79980;-66
2021/09/02 20:58:44;;;;;;;9.57;2.00;;;22.20;56.90;;;;;;20995975;27;79831;-68
2021/09/02 21:08:48;;;;;;;4.13;2.10;;;21.90;58.20;;;;;;21062009;27;80536;-68
2021/09/02 21:18:49;;;;;;;5.43;2.75;;;21.70;59.80;;;;;;20989629;27;80501;-67
2021/09/02 21:29:29;;;;;;;5.03;2.10;;;21.70;60.00;;;;;;21055512;27;82014;-66
2021/09/02 21:39:51;;;;;;;6.05;2.35;;;21.60;60.30;;;;;;20927602;27;80589;-70
2021/09/02 21:49:54;;;;;;;4.65;1.88;;;21.40;61.80;;;;;;20957364;27;80052;-71
2021/09/02 21:59:56;;;;;;;5.18;2.47;;;21.20;62.70;;;;;;20967351;27;81012;-68
2021/09/02 22:09:58;;;;;;;3.67;2.42;;;21.00;63.60;;;;;;20968507;27;80794;-67
2021/09/02 22:20:06;;;;;;;3.13;2.33;;;20.90;64.50;;;;;;21007040;27;80880;-69
2021/09/02 22:30:08;;;;;;;4.57;2.40;;;20.90;65.30;;;;;;20954379;27;80819;-68
2021/09/02 22:40:13;;;;;;;7.10;2.72;;;20.80;66.00;;;;;;20970673;27;80637;-68
2021/09/02 22:50:15;;;;;;;;;;;20.80;66.30;;;;;;20963970;27;80582;-70
2021/09/02 23:00:17;;;;;;;5.15;3.42;;;20.70;66.60;;;;;;21042422;27;81708;-72
2021/09/02 23:10:44;;;;;;;4.03;2.42;;;20.60;66.90;;;;;;21035181;27;80015;-70
2021/09/02 23:20:50;;;;;;;5.32;2.83;;;20.60;67.30;;;;;;21052956;27;80724;-70
2021/09/02 23:30:54;;;;;;;5.32;3.20;;;20.60;68.20;;;;;;21033985;27;79966;-66
2021/09/02 23:40:56;;;;;;;5.82;2.70;;;20.50;68.40;;;;;;21052071;27;79936;-71
2021/09/02 23:50:57;;;;;;;;;;;20.50;68.90;;;;;;21052817;27;82136;-71
